createdAt,value
2019-03-01T00:01:43.539Z,100180.83
2019-03-01T00:04:27.672Z,100182.39
2019-03-01T00:07:37.947Z,100167.30
2019-03-01T00:10:48.518Z,100168.61
2019-03-01T00:14:07.490Z,100166.95
2019-03-01T00:17:00.554Z,100172.16
2019-03-01T00:20:29.136Z,100159.58
2019-03-01T00:23:18.614Z,100145.86
2019-03-01T00:26:24.847Z,100144.23
2019-03-01T00:29:21.278Z,100147.60
2019-03-01T00:32:24.735Z,100139.92
2019-03-01T00:35:11.239Z,100132.03
2019-03-01T00:38:23.539Z,100138.14
2019-03-01T00:41:21.202Z,100147.52
2019-03-01T00:44:39.361Z,100142.30
2019-03-01T00:47:10.713Z,100139.34
2019-03-01T00:49:40.795Z,100126.92
2019-03-01T00:52:11.242Z,100132.07
2019-03-01T00:54:41.126Z,100135.48
2019-03-01T00:57:10.877Z,100132.96
2019-03-01T00:59:40.807Z,100133.36
2019-03-01T01:02:10.786Z,100133.87
2019-03-01T01:04:40.832Z,100144.00
2019-03-01T01:07:10.660Z,100132.94
2019-03-01T01:09:40.521Z,100135.03
2019-03-01T01:12:10.731Z,100133.38
2019-03-01T01:14:40.371Z,100132.04
2019-03-01T01:17:10.139Z,100122.93
2019-03-01T01:19:40.041Z,100113.72
2019-03-01T01:22:10.052Z,100108.14
2019-03-01T01:24:39.944Z,100119.25
2019-03-01T01:27:09.658Z,100122.88
2019-03-01T01:29:39.488Z,100112.80
2019-03-01T01:32:10.642Z,100110.65
2019-03-01T01:34:40.524Z,100100.81
2019-03-01T01:37:10.342Z,100098.15
2019-03-01T01:39:40.361Z,100106.00
2019-03-01T01:42:10.288Z,100092.23
2019-03-01T01:44:40.111Z,100090.98
2019-03-01T01:47:09.961Z,100094.47
2019-03-01T01:49:39.833Z,100091.64
2019-03-01T01:52:09.746Z,100095.17
2019-03-01T01:54:39.846Z,100086.65
2019-03-01T01:57:09.592Z,100088.61
2019-03-01T01:59:39.507Z,100085.75
2019-03-01T02:02:09.470Z,100090.00
2019-03-01T02:04:39.454Z,100088.53
2019-03-01T02:07:09.370Z,100086.72
2019-03-01T02:09:39.596Z,100080.71
2019-03-01T02:12:09.428Z,100067.41
2019-03-01T02:14:39.302Z,100068.97
2019-03-01T02:17:09.208Z,100078.02
2019-03-01T02:19:39.070Z,100085.75
2019-03-01T02:22:08.864Z,100088.30
2019-03-01T02:24:38.677Z,100088.55
2019-03-01T02:27:28.702Z,100089.17
2019-03-01T02:29:59.276Z,100080.75
2019-03-01T02:32:46.399Z,100086.69
2019-03-01T02:35:17.890Z,100084.69
2019-03-01T02:37:47.698Z,100075.03
2019-03-01T02:40:18.079Z,100078.90
2019-03-01T02:42:47.942Z,100082.67
2019-03-01T02:45:19.281Z,100075.70
2019-03-01T02:47:49.263Z,100066.52
2019-03-01T02:50:19.731Z,100075.64
2019-03-01T02:52:49.971Z,100070.53
2019-03-01T02:55:20.678Z,100077.48
2019-03-01T02:57:50.710Z,100069.09
2019-03-01T03:00:22.474Z,100074.05
2019-03-01T03:02:52.469Z,100073.64
2019-03-01T03:05:22.401Z,100073.34
2019-03-01T03:08:07.076Z,100063.06
2019-03-01T03:10:36.957Z,100069.44
2019-03-01T03:13:09.062Z,100073.83
2019-03-01T03:15:47.062Z,100074.86
2019-03-01T03:18:17.194Z,100076.12
2019-03-01T03:20:46.978Z,100069.77
2019-03-01T03:23:16.886Z,100070.11
2019-03-01T03:25:46.617Z,100072.66
2019-03-01T03:28:16.439Z,100074.79
2019-03-01T03:30:46.395Z,100074.70
2019-03-01T03:33:16.153Z,100073.30
2019-03-01T03:35:45.961Z,100081.35
2019-03-01T03:38:15.837Z,100073.30
2019-03-01T03:40:45.680Z,100070.17
2019-03-01T03:43:15.589Z,100079.95
2019-03-01T03:45:45.330Z,100075.05
2019-03-01T03:48:15.241Z,100072.13
2019-03-01T03:50:45.105Z,100080.48
2019-03-01T03:53:14.972Z,100081.70
2019-03-01T03:55:44.798Z,100075.57
2019-03-01T03:58:15.288Z,100069.16
2019-03-01T04:00:45.348Z,100085.70
2019-03-01T04:03:15.379Z,100085.91
2019-03-01T04:05:45.161Z,100079.61
2019-03-01T04:08:15.093Z,100073.94
2019-03-01T04:10:44.941Z,100066.97
2019-03-01T04:13:16.819Z,100074.97
2019-03-01T04:15:46.465Z,100069.83
2019-03-01T04:18:16.353Z,100071.88
2019-03-01T04:20:45.991Z,100071.77
2019-03-01T04:23:15.822Z,100081.94
2019-03-01T04:25:45.677Z,100079.11
2019-03-01T04:28:15.461Z,100084.27
2019-03-01T04:30:45.476Z,100091.36
2019-03-01T04:33:15.374Z,100086.72
2019-03-01T04:35:45.317Z,100080.80
2019-03-01T04:38:16.382Z,100090.00
2019-03-01T04:40:46.250Z,100080.78
2019-03-01T04:43:16.070Z,100083.44
2019-03-01T04:45:45.995Z,100091.39
2019-03-01T04:48:15.939Z,100094.46
2019-03-01T04:50:45.710Z,100098.86
2019-03-01T04:53:15.475Z,100090.61
2019-03-01T04:55:45.424Z,100089.45
2019-03-01T04:58:15.274Z,100083.64
2019-03-01T05:00:46.452Z,100091.58
2019-03-01T05:03:16.263Z,100091.13
2019-03-01T05:05:45.929Z,100096.41
2019-03-01T05:08:15.643Z,100093.38
2019-03-01T05:10:45.530Z,100092.28
2019-03-01T05:13:15.598Z,100102.68
2019-03-01T05:15:45.476Z,100108.22
2019-03-01T05:18:15.340Z,100127.86
2019-03-01T05:20:45.348Z,100131.01
2019-03-01T05:23:15.199Z,100138.56
2019-03-01T05:25:44.963Z,100141.63
2019-03-01T05:28:14.999Z,100140.88
2019-03-01T05:30:44.827Z,100143.50
2019-03-01T05:33:14.705Z,100147.79
2019-03-01T05:35:44.571Z,100150.82
2019-03-01T05:38:21.507Z,100153.23
2019-03-01T05:40:45.591Z,100152.05
2019-03-01T05:43:15.437Z,100165.74
2019-03-01T05:45:45.335Z,100163.19
2019-03-01T05:48:15.126Z,100167.03
2019-03-01T05:50:45.054Z,100170.27
2019-03-01T05:53:14.923Z,100172.42
2019-03-01T05:55:44.671Z,100166.95
2019-03-01T05:58:49.977Z,100181.58
2019-03-01T06:01:32.458Z,100186.73
2019-03-01T06:04:21.178Z,100176.94
2019-03-01T06:07:38.336Z,100180.66
2019-03-01T06:10:57.695Z,100185.72
2019-03-01T06:14:26.502Z,100189.90
2019-03-01T06:17:41.636Z,100189.34
2019-03-01T06:20:50.505Z,100195.46
2019-03-01T06:24:13.019Z,100194.19
2019-03-01T06:27:08.383Z,100200.53
2019-03-01T06:30:08.885Z,100194.44
2019-03-01T06:33:28.025Z,100193.70
2019-03-01T06:36:22.674Z,100200.08
2019-03-01T06:39:46.641Z,100200.16
2019-03-01T06:42:36.041Z,100201.54
2019-03-01T06:45:31.773Z,100207.48
2019-03-01T06:48:01.643Z,100211.24
2019-03-01T06:50:48.455Z,100217.23
2019-03-01T06:53:18.215Z,100218.72
2019-03-01T06:55:50.655Z,100223.09
2019-03-01T06:58:45.105Z,100221.59
2019-03-01T07:01:24.374Z,100224.07
2019-03-01T07:04:07.361Z,100218.19
2019-03-01T07:06:37.248Z,100225.94
2019-03-01T07:09:08.186Z,100228.15
2019-03-01T07:11:38.070Z,100227.70
2019-03-01T07:14:08.131Z,100231.44
2019-03-01T07:16:38.116Z,100234.55
2019-03-01T07:19:08.229Z,100235.70
2019-03-01T07:21:38.186Z,100234.79
2019-03-01T07:24:08.416Z,100221.54
2019-03-01T07:26:38.475Z,100234.81
2019-03-01T07:29:08.316Z,100232.41
2019-03-01T07:31:38.047Z,100236.53
2019-03-01T07:34:07.897Z,100223.06
2019-03-01T07:36:37.760Z,100224.03
2019-03-01T07:39:09.940Z,100217.92
2019-03-01T07:41:39.807Z,100209.60
2019-03-01T07:44:09.558Z,100212.05
2019-03-01T07:46:39.370Z,100211.98
2019-03-01T07:49:09.214Z,100219.02
2019-03-01T07:51:40.372Z,100219.91
2019-03-01T07:54:13.362Z,100213.87
2019-03-01T07:56:41.708Z,100218.30
2019-03-01T07:59:11.569Z,100217.00
2019-03-01T08:01:41.446Z,100219.51
2019-03-01T08:04:11.242Z,100220.45
2019-03-01T08:06:41.192Z,100220.55
2019-03-01T08:09:14.482Z,100225.76
2019-03-01T08:11:44.896Z,100224.70
2019-03-01T08:14:14.852Z,100227.40
2019-03-01T08:16:44.614Z,100226.34
2019-03-01T08:19:15.683Z,100220.68
2019-03-01T08:21:49.709Z,100233.90
2019-03-01T08:24:17.748Z,100232.45
2019-03-01T08:26:47.665Z,100238.73
2019-03-01T08:29:18.815Z,100228.64
2019-03-01T08:31:48.823Z,100220.37
2019-03-01T08:34:18.669Z,100226.00
2019-03-01T08:36:48.506Z,100220.49
2019-03-01T08:39:18.282Z,100220.14
2019-03-01T08:41:48.190Z,100227.30
2019-03-01T08:44:23.007Z,100223.55
2019-03-01T08:46:50.898Z,100214.80
2019-03-01T08:49:20.721Z,100223.62
2019-03-01T08:51:50.477Z,100214.14
2019-03-01T08:54:22.858Z,100216.71
2019-03-01T08:56:52.324Z,100214.60
2019-03-01T08:59:22.160Z,100208.70
2019-03-01T09:01:51.918Z,100207.98
2019-03-01T09:04:21.754Z,100210.33
2019-03-01T09:06:51.730Z,100212.79
2019-03-01T09:09:21.976Z,100205.45
2019-03-01T09:11:51.896Z,100203.31
2019-03-01T09:14:22.818Z,100206.61
2019-03-01T09:16:53.362Z,100213.16
2019-03-01T09:19:25.228Z,100203.99
2019-03-01T09:21:56.101Z,100191.62
2019-03-01T09:24:29.256Z,100205.83
2019-03-01T09:26:57.553Z,100203.81
2019-03-01T09:29:27.605Z,100203.23
2019-03-01T09:31:58.543Z,100198.38
2019-03-01T09:34:31.744Z,100195.77
2019-03-01T09:37:00.156Z,100194.82
2019-03-01T09:39:29.978Z,100198.02
2019-03-01T09:42:03.253Z,100221.11
2019-03-01T09:44:34.657Z,100198.97
2019-03-01T09:47:02.810Z,100193.62
2019-03-01T09:49:32.773Z,100189.22
2019-03-01T09:52:02.645Z,100201.00
2019-03-01T09:54:32.466Z,100186.02
2019-03-01T09:57:02.194Z,100193.70
2019-03-01T09:59:32.012Z,100189.69
2019-03-01T10:02:02.070Z,100188.53
2019-03-01T10:04:32.070Z,100201.00
2019-03-01T10:07:01.936Z,100223.97
2019-03-01T10:09:31.811Z,100200.43
2019-03-01T10:12:01.497Z,100205.24
2019-03-01T10:14:31.292Z,100197.46
2019-03-01T10:17:01.253Z,100189.06
2019-03-01T10:19:30.930Z,100194.77
2019-03-01T10:22:00.745Z,100196.45
2019-03-01T10:24:30.572Z,100181.58
2019-03-01T10:27:00.474Z,100184.30
2019-03-01T10:29:30.443Z,100185.54
2019-03-01T10:32:00.426Z,100178.53
2019-03-01T10:34:30.209Z,100189.06
2019-03-01T10:37:00.131Z,100179.50
2019-03-01T10:39:29.978Z,100191.98
2019-03-01T10:41:59.649Z,100185.22
2019-03-01T10:44:29.479Z,100172.50
2019-03-01T10:46:59.646Z,100173.16
2019-03-01T10:49:29.519Z,100161.05
2019-03-01T10:51:59.428Z,100155.91
2019-03-01T10:54:29.413Z,100159.34
2019-03-01T10:56:59.259Z,100158.78
2019-03-01T10:59:30.569Z,100157.56
2019-03-01T11:02:00.429Z,100138.90
2019-03-01T11:04:30.187Z,100144.21
2019-03-01T11:07:00.040Z,100141.20
2019-03-01T11:09:29.916Z,100135.82
2019-03-01T11:11:59.777Z,100136.65
2019-03-01T11:14:29.746Z,100131.27
2019-03-01T11:16:59.620Z,100137.08
2019-03-01T11:19:29.540Z,100132.51
2019-03-01T11:21:59.416Z,100127.66
2019-03-01T11:24:29.251Z,100126.52
2019-03-01T11:26:59.068Z,100146.20
2019-03-01T11:29:29.046Z,100122.34
2019-03-01T11:31:58.964Z,100115.98
2019-03-01T11:34:28.827Z,100122.21
2019-03-01T11:36:58.675Z,100117.81
2019-03-01T11:39:28.465Z,100111.02
2019-03-01T11:41:58.381Z,100116.02
2019-03-01T11:44:28.672Z,100117.79
2019-03-01T11:46:58.523Z,100124.06
2019-03-01T11:49:28.342Z,100120.06
2019-03-01T11:51:58.364Z,100107.14
2019-03-01T11:54:28.272Z,100120.50
2019-03-01T11:56:58.208Z,100133.50
2019-03-01T11:59:29.638Z,100109.88
2019-03-01T12:01:59.439Z,100115.73
2019-03-01T12:04:30.519Z,100110.56
2019-03-01T12:07:00.391Z,100108.83
2019-03-01T12:09:30.307Z,100100.67
2019-03-01T12:12:01.797Z,100104.92
2019-03-01T12:14:31.445Z,100098.80
2019-03-01T12:17:01.269Z,100090.91
2019-03-01T12:19:31.101Z,100090.02
2019-03-01T12:22:01.103Z,100086.20
2019-03-01T12:24:30.848Z,100091.81
2019-03-01T12:27:00.966Z,100097.05
2019-03-01T12:29:30.767Z,100081.81
2019-03-01T12:32:00.708Z,100095.65
2019-03-01T12:34:30.565Z,100079.15
2019-03-01T12:37:00.419Z,100077.28
2019-03-01T12:39:30.232Z,100086.91
2019-03-01T12:42:01.316Z,100088.30
2019-03-01T12:44:31.201Z,100102.08
2019-03-01T12:47:01.103Z,100085.10
2019-03-01T12:49:31.073Z,100079.41
2019-03-01T12:52:00.955Z,100087.86
2019-03-01T12:54:30.862Z,100102.06
2019-03-01T12:57:01.923Z,100096.00
2019-03-01T12:59:31.857Z,100090.50
2019-03-01T13:02:01.830Z,100081.69
2019-03-01T13:04:31.651Z,100085.59
2019-03-01T13:07:01.587Z,100094.42
2019-03-01T13:09:31.542Z,100104.44
2019-03-01T13:12:01.402Z,100085.28
2019-03-01T13:14:31.232Z,100077.55
2019-03-01T13:17:01.740Z,100073.08
2019-03-01T13:19:32.493Z,100085.91
2019-03-01T13:22:02.394Z,100079.42
2019-03-01T13:24:32.461Z,100079.61
2019-03-01T13:27:02.226Z,100082.16
2019-03-01T13:29:33.322Z,100059.88
2019-03-01T13:32:05.263Z,100074.17
2019-03-01T13:34:35.052Z,100070.81
2019-03-01T13:37:04.966Z,100056.91
2019-03-01T13:39:34.916Z,100074.77
2019-03-01T13:42:04.811Z,100062.96
2019-03-01T13:44:36.071Z,100056.05
2019-03-01T13:47:08.727Z,100077.66
2019-03-01T13:49:37.871Z,100067.61
2019-03-01T13:52:07.903Z,100061.55
2019-03-01T13:54:37.683Z,100064.67
2019-03-01T13:57:08.317Z,100053.48
2019-03-01T13:59:40.384Z,100049.06
2019-03-01T14:02:10.106Z,100036.58
2019-03-01T14:04:41.186Z,100050.53
2019-03-01T14:07:11.329Z,100037.72
2019-03-01T14:09:41.692Z,100033.31
2019-03-01T14:12:11.396Z,100031.49
2019-03-01T14:14:41.462Z,100034.41
2019-03-01T14:17:11.107Z,100025.56
2019-03-01T14:19:42.301Z,100027.37
2019-03-01T14:22:13.998Z,100018.99
2019-03-01T14:24:43.877Z,100009.30
2019-03-01T14:27:13.868Z,100019.47
2019-03-01T14:29:43.675Z,100017.03
2019-03-01T14:32:20.727Z,100002.87
2019-03-01T14:34:48.663Z,99997.46
2019-03-01T14:37:19.287Z,100008.62
2019-03-01T14:39:49.356Z,100004.19
2019-03-01T14:42:19.239Z,100007.46
2019-03-01T14:44:49.040Z,99996.29
2019-03-01T14:47:19.743Z,99997.78
2019-03-01T14:49:49.571Z,100006.31
2019-03-01T14:52:21.282Z,99990.70
2019-03-01T14:54:51.317Z,99999.39
2019-03-01T14:57:34.555Z,99986.75
2019-03-01T15:00:33.769Z,99991.80
2019-03-01T15:03:28.012Z,99985.55
2019-03-01T15:05:57.873Z,99984.39
2019-03-01T15:08:27.708Z,99977.82
2019-03-01T15:10:58.359Z,99982.78
2019-03-01T15:13:31.394Z,99972.02
2019-03-01T15:16:01.115Z,99974.16
2019-03-01T15:18:32.247Z,99974.45
2019-03-01T15:21:02.918Z,99977.11
2019-03-01T15:23:32.747Z,99975.77
2019-03-01T15:26:03.853Z,99978.72
2019-03-01T15:28:35.756Z,99981.59
2019-03-01T15:31:05.598Z,99972.71
2019-03-01T15:33:35.364Z,99978.59
2019-03-01T15:36:05.273Z,99990.66
2019-03-01T15:38:35.230Z,99993.72
2019-03-01T15:41:06.612Z,99995.64
2019-03-01T15:43:36.380Z,99997.80
2019-03-01T15:46:06.279Z,99999.45
2019-03-01T15:48:38.315Z,99989.59
2019-03-01T15:51:07.988Z,100001.56
2019-03-01T15:53:37.750Z,99993.77
2019-03-01T15:56:07.950Z,100001.77
2019-03-01T15:58:37.904Z,100002.86
2019-03-01T16:01:12.001Z,100006.19
2019-03-01T16:03:42.270Z,100007.97
2019-03-01T16:06:17.269Z,100010.19
2019-03-01T16:08:47.583Z,100007.41
2019-03-01T16:11:16.503Z,100011.95
2019-03-01T16:13:49.037Z,100022.77
2019-03-01T16:16:17.773Z,100022.25
2019-03-01T16:18:47.681Z,100028.53
2019-03-01T16:21:17.561Z,100021.07
2019-03-01T16:23:47.410Z,100031.67
2019-03-01T16:26:17.405Z,100028.16
2019-03-01T16:28:47.163Z,100039.86
2019-03-01T16:31:18.315Z,100038.79
2019-03-01T16:33:48.240Z,100038.62
2019-03-01T16:36:26.471Z,100041.32
2019-03-01T16:38:55.129Z,100046.27
2019-03-01T16:41:24.915Z,100037.59
2019-03-01T16:43:54.732Z,100048.56
2019-03-01T16:46:24.695Z,100049.27
2019-03-01T16:48:54.569Z,100056.69
2019-03-01T16:51:24.481Z,100055.42
2019-03-01T16:53:54.456Z,100058.16
2019-03-01T16:56:26.464Z,100049.25
2019-03-01T16:58:55.975Z,100056.47
2019-03-01T17:01:26.034Z,100057.58
2019-03-01T17:03:57.613Z,100055.20
2019-03-01T17:06:27.562Z,100064.97
2019-03-01T17:08:57.290Z,100063.66
2019-03-01T17:11:27.048Z,100063.53
2019-03-01T17:13:59.569Z,100073.17
2019-03-01T17:16:28.271Z,100076.72
2019-03-01T17:18:58.109Z,100078.36
2019-03-01T17:21:27.912Z,100078.27
2019-03-01T17:23:57.694Z,100087.06
2019-03-01T17:26:29.883Z,100076.23
2019-03-01T17:28:59.689Z,100101.81
2019-03-01T17:31:30.737Z,100090.42
2019-03-01T17:34:00.640Z,100086.85
2019-03-01T17:36:30.387Z,100105.36
2019-03-01T17:39:00.154Z,100097.10
2019-03-01T17:41:29.877Z,100123.08
2019-03-01T17:44:01.016Z,100108.83
2019-03-01T17:46:32.973Z,100121.95
2019-03-01T17:49:02.186Z,100124.83
2019-03-01T17:51:33.240Z,100128.47
2019-03-01T17:54:03.047Z,100132.59
2019-03-01T17:56:32.952Z,100129.40
2019-03-01T17:59:04.303Z,100126.31
2019-03-01T18:01:35.547Z,100129.06
2019-03-01T18:04:05.784Z,100126.48
2019-03-01T18:06:35.763Z,100108.91
2019-03-01T18:09:06.554Z,100100.77
2019-03-01T18:11:36.519Z,100102.65
2019-03-01T18:14:06.261Z,100090.99
2019-03-01T18:16:36.291Z,100103.45
2019-03-01T18:19:06.028Z,100103.76
2019-03-01T18:21:35.977Z,100109.14
2019-03-01T18:24:06.235Z,100117.95
2019-03-01T18:26:36.351Z,100122.36
2019-03-01T18:29:08.534Z,100122.36
2019-03-01T18:31:38.343Z,100117.64
2019-03-01T18:34:08.058Z,100124.83
2019-03-01T18:36:38.023Z,100117.39
2019-03-01T18:39:12.303Z,100124.68
2019-03-01T18:41:42.100Z,100125.55
2019-03-01T18:44:11.922Z,100121.16
2019-03-01T18:46:41.672Z,100117.91
2019-03-01T18:49:11.470Z,100109.77
2019-03-01T18:51:43.285Z,100110.59
2019-03-01T18:54:14.363Z,100107.48
2019-03-01T18:56:44.431Z,100108.27
2019-03-01T18:59:14.299Z,100115.93
2019-03-01T19:01:46.414Z,100119.91
2019-03-01T19:04:16.698Z,100120.56
2019-03-01T19:06:48.410Z,100118.23
2019-03-01T19:09:18.693Z,100115.66
2019-03-01T19:11:48.593Z,100117.53
2019-03-01T19:14:18.694Z,100116.98
2019-03-01T19:16:48.416Z,100115.92
2019-03-01T19:19:18.274Z,100114.13
2019-03-01T19:21:49.560Z,100121.05
2019-03-01T19:24:19.492Z,100120.61
2019-03-01T19:26:49.479Z,100126.92
2019-03-01T19:29:19.316Z,100125.41
2019-03-01T19:31:49.244Z,100124.17
2019-03-01T19:34:20.335Z,100122.42
2019-03-01T19:36:50.097Z,100121.58
2019-03-01T19:39:23.439Z,100122.72
2019-03-01T19:41:54.542Z,100114.14
2019-03-01T19:44:25.633Z,100120.20
2019-03-01T19:46:56.553Z,100126.69
2019-03-01T19:49:26.424Z,100123.71
2019-03-01T19:51:56.170Z,100128.45
2019-03-01T19:54:26.404Z,100118.16
2019-03-01T19:56:57.724Z,100118.86
2019-03-01T19:59:27.647Z,100123.05
2019-03-01T20:01:57.504Z,100120.45
2019-03-01T20:04:27.378Z,100123.98
2019-03-01T20:06:57.720Z,100125.57
2019-03-01T20:09:28.891Z,100126.53
2019-03-01T20:11:59.302Z,100117.86
2019-03-01T20:14:33.635Z,100122.83
2019-03-01T20:17:02.041Z,100125.83
2019-03-01T20:19:31.808Z,100126.89
2019-03-01T20:22:01.620Z,100131.94
2019-03-01T20:24:31.527Z,100129.94
2019-03-01T20:27:03.077Z,100130.19
2019-03-01T20:29:32.887Z,100131.83
2019-03-01T20:32:04.394Z,100123.38
2019-03-01T20:34:34.773Z,100125.64
2019-03-01T20:37:06.981Z,100127.45
2019-03-01T20:39:38.012Z,100121.66
2019-03-01T20:42:07.419Z,100122.82
2019-03-01T20:44:37.107Z,100115.59
2019-03-01T20:47:08.168Z,100121.34
2019-03-01T20:49:39.440Z,100120.70
2019-03-01T20:52:09.841Z,100119.91
2019-03-01T20:54:39.798Z,100119.58
2019-03-01T20:57:09.653Z,100122.79
2019-03-01T20:59:39.403Z,100126.62
2019-03-01T21:02:09.583Z,100135.48
2019-03-01T21:04:53.031Z,100135.23
2019-03-01T21:07:15.696Z,100145.77
2019-03-01T21:09:45.095Z,100135.83
2019-03-01T21:12:15.104Z,100147.28
2019-03-01T21:14:44.940Z,100138.95
2019-03-01T21:17:16.817Z,100137.72
2019-03-01T21:19:46.607Z,100144.42
2019-03-01T21:22:16.504Z,100136.88
2019-03-01T21:24:46.365Z,100129.78
2019-03-01T21:27:16.121Z,100137.50
2019-03-01T21:29:47.612Z,100130.57
2019-03-01T21:32:17.819Z,100138.80
2019-03-01T21:34:47.923Z,100138.58
2019-03-01T21:37:19.120Z,100126.95
2019-03-01T21:39:48.812Z,100127.61
2019-03-01T21:42:20.304Z,100126.45
2019-03-01T21:44:50.470Z,100123.95
2019-03-01T21:47:20.399Z,100130.44
2019-03-01T21:49:50.240Z,100129.80
2019-03-01T21:52:20.010Z,100133.55
2019-03-01T21:54:52.040Z,100136.14
2019-03-01T21:57:22.742Z,100140.64
2019-03-01T21:59:53.752Z,100141.94
2019-03-01T22:02:23.466Z,100149.05
2019-03-01T22:04:53.658Z,100145.67
2019-03-01T22:07:23.306Z,100135.63
2019-03-01T22:09:53.233Z,100127.31
2019-03-01T22:12:24.681Z,100123.80
2019-03-01T22:14:54.502Z,100129.13
2019-03-01T22:17:24.409Z,100129.38
2019-03-01T22:19:54.205Z,100131.72
2019-03-01T22:22:24.017Z,100136.77
2019-03-01T22:24:53.872Z,100142.11
2019-03-01T22:27:25.306Z,100123.95
2019-03-01T22:29:55.207Z,100126.22
2019-03-01T22:32:25.075Z,100128.34
2019-03-01T22:34:54.932Z,100134.83
2019-03-01T22:37:28.453Z,100135.95
2019-03-01T22:39:56.494Z,100129.34
2019-03-01T22:42:26.339Z,100134.68
2019-03-01T22:44:56.320Z,100121.77
2019-03-01T22:47:26.226Z,100131.02
2019-03-01T22:49:56.086Z,100137.74
2019-03-01T22:52:26.723Z,100137.53
2019-03-01T22:55:01.323Z,100140.95
2019-03-01T22:57:29.005Z,100149.19
2019-03-01T22:59:58.900Z,100141.37
2019-03-01T23:02:29.924Z,100142.52
2019-03-01T23:05:00.443Z,100131.02
2019-03-01T23:07:31.258Z,100139.81
2019-03-01T23:10:01.278Z,100145.47
2019-03-01T23:12:31.156Z,100136.84
2019-03-01T23:15:02.805Z,100150.09
2019-03-01T23:17:32.363Z,100151.55
2019-03-01T23:20:02.249Z,100140.02
2019-03-01T23:22:32.061Z,100147.06
2019-03-01T23:25:02.134Z,100139.04
2019-03-01T23:27:32.724Z,100148.05
2019-03-01T23:30:02.419Z,100152.16
2019-03-01T23:32:32.157Z,100151.59
2019-03-01T23:35:02.011Z,100146.91
2019-03-01T23:37:31.894Z,100147.53
2019-03-01T23:40:02.409Z,100141.55
2019-03-01T23:42:32.250Z,100148.20
2019-03-01T23:45:02.182Z,100143.45
2019-03-01T23:47:34.724Z,100150.34
2019-03-01T23:50:03.826Z,100146.66
2019-03-01T23:52:33.660Z,100148.34
2019-03-01T23:55:03.521Z,100149.47
2019-03-01T23:57:33.764Z,100155.95
